Time;durP1;ratioP1;P1;durP2;ratioP2;P2;SDS_P1;SDS_P2;PMS_P1;PMS_P2;Temp;Humidity;BMP_temperature;BMP_pressure;BME280_temperature;BME280_humidity;BME280_pressure;Samples;Min_cycle;Max_cycle;Signal;HPM_P1;HPM_P2
2023/02/08 00:01:47;;;;;;;;;;;22.10;51.90;;;;;;1601772;74;787;-67
2023/02/08 00:03:48;;;;;;;;;;;22.10;51.90;;;;;;1595806;73;789;-69
2023/02/08 00:05:50;;;;;;;;;;;22.20;51.80;;;;;;1594143;73;720;-69
2023/02/08 00:07:52;;;;;;;;;;;22.10;51.80;;;;;;1593373;73;1941;-71
2023/02/08 00:09:54;;;;;;;;;;;22.20;51.80;;;;;;1598996;74;813;-69
2023/02/08 00:11:56;;;;;;;;;;;22.20;51.80;;;;;;1598168;73;729;-70
2023/02/08 00:13:58;;;;;;;;;;;22.20;51.80;;;;;;1592013;74;763;-69
2023/02/08 00:16:00;;;;;;;;;;;22.20;51.80;;;;;;1593561;73;807;-68
2023/02/08 00:18:02;;;;;;;;;;;22.10;52.10;;;;;;1586853;74;1166;-69
2023/02/08 00:20:03;;;;;;;;;;;22.10;52.10;;;;;;1591732;73;770;-70
2023/02/08 00:22:05;;;;;;;;;;;22.20;52.10;;;;;;1586253;73;745;-70
2023/02/08 00:24:07;;;;;;;;;;;22.10;51.80;;;;;;1597580;73;928;-70
2023/02/08 00:26:09;;;;;;;;;;;22.30;51.80;;;;;;1597676;73;878;-70
2023/02/08 00:28:14;;;;;;;;;;;22.20;51.70;;;;;;1599675;74;1940;-69
2023/02/08 00:30:16;;;;;;;;;;;22.20;51.70;;;;;;1599035;73;718;-69
2023/02/08 00:32:18;;;;;;;;;;;22.20;51.60;;;;;;1595860;73;808;-69
2023/02/08 00:34:20;;;;;;;;;;;22.20;51.70;;;;;;1598918;73;739;-70
2023/02/08 00:36:22;;;;;;;;;;;22.20;52.00;;;;;;1599301;74;723;-69
2023/02/08 00:38:24;;;;;;;;;;;22.10;52.10;;;;;;1601345;73;1160;-70
2023/02/08 00:40:26;;;;;;;;;;;22.10;52.10;;;;;;1598202;73;775;-69
2023/02/08 00:42:29;;;;;;;;;;;22.20;52.00;;;;;;1598315;74;768;-69
2023/02/08 00:44:30;;;;;;;;;;;22.20;51.90;;;;;;1594491;74;1129;-69
2023/02/08 00:46:32;;;;;;;;;;;22.10;52.00;;;;;;1589870;74;762;-68
2023/02/08 00:48:34;;;;;;;;;;;22.10;52.30;;;;;;1559547;76;1927;-68
2023/02/08 00:50:36;;;;;;;;;;;22.00;52.30;;;;;;1597661;73;735;-69
2023/02/08 00:52:38;;;;;;;;;;;22.00;52.50;;;;;;1595984;74;754;-70
2023/02/08 00:54:41;;;;;;;;;;;22.00;52.40;;;;;;1596020;73;762;-69
2023/02/08 00:56:43;;;;;;;;;;;22.00;52.40;;;;;;1594797;73;733;-69
2023/02/08 01:01:09;;;;;;;;;;;22.10;52.30;;;;;;1588045;73;1540;-67
2023/02/08 01:03:11;;;;;;;;;;;22.10;52.10;;;;;;1593571;73;678;-69
2023/02/08 01:05:13;;;;;;;;;;;22.10;52.10;;;;;;1587937;73;647;-69
2023/02/08 01:07:15;;;;;;;;;;;22.10;52.00;;;;;;1593698;73;686;-69
2023/02/08 01:09:16;;;;;;;;;;;22.10;52.00;;;;;;1597265;73;1923;-68
2023/02/08 01:11:21;;;;;;;;;;;22.20;51.90;;;;;;1583197;73;661;-67
2023/02/08 01:13:23;;;;;;;;;;;22.20;51.70;;;;;;1591464;73;717;-68
2023/02/08 01:15:24;;;;;;;;;;;22.20;51.70;;;;;;1590394;73;716;-68
2023/02/08 01:17:26;;;;;;;;;;;22.20;51.70;;;;;;1597013;73;709;-68
2023/02/08 01:19:28;;;;;;;;;;;22.20;51.70;;;;;;1587550;73;1144;-68
2023/02/08 01:21:31;;;;;;;;;;;22.20;51.60;;;;;;1594487;73;706;-69
2023/02/08 01:23:33;;;;;;;;;;;22.20;51.60;;;;;;1588547;73;768;-68
2023/02/08 01:25:35;;;;;;;;;;;22.20;51.60;;;;;;1594395;73;711;-67
2023/02/08 01:27:37;;;;;;;;;;;22.20;51.60;;;;;;1595237;73;693;-68
2023/02/08 01:29:39;;;;;;;;;;;22.20;51.60;;;;;;1588436;73;1942;-68
2023/02/08 01:31:41;;;;;;;;;;;22.20;51.70;;;;;;1532183;76;655;-66
2023/02/08 01:33:43;;;;;;;;;;;22.20;51.60;;;;;;1536149;76;800;-67
2023/02/08 01:35:45;;;;;;;;;;;22.20;51.50;;;;;;1553261;74;773;-68
2023/02/08 01:37:46;;;;;;;;;;;22.20;51.50;;;;;;1525850;76;810;-65
2023/02/08 01:39:48;;;;;;;;;;;22.20;51.80;;;;;;1557093;75;1193;-66
2023/02/08 01:41:50;;;;;;;;;;;22.10;52.10;;;;;;1549816;75;799;-65
2023/02/08 01:44:00;;;;;;;;;;;22.10;52.20;;;;;;1522873;76;811;-66
2023/02/08 01:46:02;;;;;;;;;;;22.10;52.30;;;;;;1580937;73;746;-66
2023/02/08 01:48:05;;;;;;;;;;;22.10;52.30;;;;;;1595295;73;1923;-66
2023/02/08 01:50:07;;;;;;;;;;;22.00;52.30;;;;;;1586517;73;1160;-66
2023/02/08 01:52:11;;;;;;;;;;;21.90;52.50;;;;;;1592300;74;690;-66
2023/02/08 01:54:12;;;;;;;;;;;22.00;52.40;;;;;;1582697;73;747;-66
2023/02/08 01:56:16;;;;;;;;;;;22.00;52.40;;;;;;1583829;74;836;-65
2023/02/08 01:58:18;;;;;;;;;;;22.00;52.30;;;;;;1592465;73;786;-67
2023/02/08 02:00:21;;;;;;;;;;;22.10;52.50;;;;;;1587986;73;1120;-67
2023/02/08 02:02:23;;;;;;;;;;;22.10;52.40;;;;;;1593763;73;728;-68
2023/02/08 02:04:25;;;;;;;;;;;22.10;52.30;;;;;;1583784;73;709;-68
2023/02/08 02:06:28;;;;;;;;;;;22.10;52.40;;;;;;1576899;73;758;-67
2023/02/08 02:08:30;;;;;;;;;;;22.10;52.30;;;;;;1585852;73;1921;-69
2023/02/08 02:10:32;;;;;;;;;;;22.20;52.10;;;;;;1531433;76;1158;-67
2023/02/08 02:12:34;;;;;;;;;;;22.30;52.10;;;;;;1531439;76;781;-68
2023/02/08 02:14:36;;;;;;;;;;;22.30;51.90;;;;;;1543203;76;766;-70
2023/02/08 02:16:38;;;;;;;;;;;22.30;51.90;;;;;;1530078;76;733;-68
2023/02/08 02:18:40;;;;;;;;;;;22.20;51.80;;;;;;1547877;76;712;-68
2023/02/08 02:20:49;;;;;;;;;;;22.30;51.90;;;;;;1548561;76;1123;-68
2023/02/08 02:22:53;;;;;;;;;;;22.30;51.90;;;;;;1550574;76;720;-68
2023/02/08 02:24:58;;;;;;;;;;;22.30;51.80;;;;;;1552704;76;1119;-69
2023/02/08 02:27:05;;;;;;;;;;;22.30;51.80;;;;;;1545023;76;1082;-69
2023/02/08 02:29:20;;;;;;;;;;;22.30;51.80;;;;;;1543499;76;1927;-67
2023/02/08 02:31:29;;;;;;;;;;;22.30;51.80;;;;;;1538787;76;707;-69
2023/02/08 02:33:49;;;;;;;;;;;22.30;51.70;;;;;;1550176;76;1976;-67
2023/02/08 02:35:55;;;;;;;;;;;22.30;51.70;;;;;;1549438;76;716;-67
2023/02/08 02:38:02;;;;;;;;;;;22.30;51.80;;;;;;1542381;76;1209;-67
2023/02/08 02:40:05;;;;;;;;;;;22.30;51.70;;;;;;1542133;76;1936;-67
2023/02/08 02:44:37;;;;;;;;;;;22.20;51.90;;;;;;1542805;76;1670;-69
2023/02/08 02:46:40;;;;;;;;;;;22.20;51.90;;;;;;1539518;76;740;-68
2023/02/08 02:48:43;;;;;;;;;;;22.30;51.90;;;;;;1541731;76;1914;-67
2023/02/08 02:50:46;;;;;;;;;;;22.20;51.80;;;;;;1546695;76;1139;-68
2023/02/08 02:52:58;;;;;;;;;;;22.20;51.90;;;;;;1543253;76;749;-68
2023/02/08 02:55:02;;;;;;;;;;;22.20;51.90;;;;;;1545520;76;827;-67
2023/02/08 02:57:04;;;;;;;;;;;22.20;51.80;;;;;;1543855;76;712;-67
2023/02/08 02:59:07;;;;;;;;;;;22.20;51.90;;;;;;1549921;76;1154;-69
2023/02/08 03:01:08;;;;;;;;;;;22.20;52.00;;;;;;1544608;76;785;-68
2023/02/08 03:03:12;;;;;;;;;;;22.20;52.00;;;;;;1544473;76;777;-69
2023/02/08 03:05:14;;;;;;;;;;;22.20;51.90;;;;;;1544522;76;1701;-68
2023/02/08 03:07:34;;;;;;;;;;;22.30;51.90;;;;;;1546019;76;778;-68
2023/02/08 03:09:54;;;;;;;;;;;22.30;51.90;;;;;;1547969;76;1923;-67
2023/02/08 03:12:03;;;;;;;;;;;22.20;51.80;;;;;;1554304;76;723;-68
2023/02/08 03:14:09;;;;;;;;;;;22.20;51.80;;;;;;1542011;76;764;-68
2023/02/08 03:16:16;;;;;;;;;;;22.20;51.80;;;;;;1541923;76;679;-67
2023/02/08 03:18:36;;;;;;;;;;;22.20;51.80;;;;;;1549127;76;750;-67
2023/02/08 03:20:38;;;;;;;;;;;22.20;51.80;;;;;;1547229;76;1134;-68
2023/02/08 03:22:44;;;;;;;;;;;22.20;51.80;;;;;;1543593;76;719;-70
2023/02/08 03:24:48;;;;;;;;;;;22.20;51.90;;;;;;1545795;76;579;-69
2023/02/08 03:26:51;;;;;;;;;;;22.20;51.90;;;;;;1550857;76;1756;-67
2023/02/08 03:28:55;;;;;;;;;;;22.20;51.90;;;;;;1549197;76;1939;-67
2023/02/08 03:31:05;;;;;;;;;;;22.30;52.00;;;;;;1549725;76;644;-67
2023/02/08 03:33:08;;;;;;;;;;;22.20;51.80;;;;;;1547125;76;1524;-67
2023/02/08 03:35:11;;;;;;;;;;;22.20;51.90;;;;;;1526421;76;1429;-67
2023/02/08 03:37:14;;;;;;;;;;;22.20;51.90;;;;;;1547594;76;710;-68
2023/02/08 03:39:24;;;;;;;;;;;22.20;51.90;;;;;;1544188;76;1146;-67
2023/02/08 03:41:30;;;;;;;;;;;22.30;52.10;;;;;;1547037;76;1062;-69
2023/02/08 03:43:34;;;;;;;;;;;22.30;52.10;;;;;;1548508;76;754;-68
2023/02/08 03:45:37;;;;;;;;;;;22.20;51.80;;;;;;1544891;76;1678;-68
2023/02/08 03:47:39;;;;;;;;;;;22.30;52.00;;;;;;1549792;76;779;-69
2023/02/08 03:49:41;;;;;;;;;;;22.20;51.90;;;;;;1554511;76;1942;-70
2023/02/08 03:51:43;;;;;;;;;;;22.20;51.90;;;;;;1546768;76;732;-69
2023/02/08 03:53:44;;;;;;;;;;;22.20;51.90;;;;;;1542869;76;797;-70
2023/02/08 03:55:47;;;;;;;;;;;22.10;52.10;;;;;;1550092;76;758;-67
2023/02/08 03:57:53;;;;;;;;;;;22.10;52.20;;;;;;1551055;76;728;-68
2023/02/08 04:00:02;;;;;;;;;;;22.00;52.20;;;;;;1551931;75;1158;-68
2023/02/08 04:02:05;;;;;;;;;;;22.00;52.30;;;;;;1547245;76;1520;-68
2023/02/08 04:04:07;;;;;;;;;;;22.00;52.30;;;;;;1543555;76;655;-69
2023/02/08 04:06:08;;;;;;;;;;;22.00;52.40;;;;;;1537075;76;738;-68
2023/02/08 04:08:10;;;;;;;;;;;22.00;52.50;;;;;;1544327;76;756;-67
2023/02/08 04:10:12;;;;;;;;;;;21.90;52.50;;;;;;1550486;76;1929;-70
2023/02/08 04:12:14;;;;;;;;;;;22.00;52.60;;;;;;1547437;75;794;-71
2023/02/08 04:14:16;;;;;;;;;;;22.00;52.50;;;;;;1546547;76;1091;-69
2023/02/08 04:16:18;;;;;;;;;;;21.90;52.50;;;;;;1551546;76;785;-69
2023/02/08 04:18:20;;;;;;;;;;;21.90;52.60;;;;;;1544927;76;761;-69
2023/02/08 04:20:21;;;;;;;;;;;21.90;52.60;;;;;;1552277;76;1160;-68
2023/02/08 04:22:23;;;;;;;;;;;22.00;52.60;;;;;;1550371;75;811;-69
2023/02/08 04:24:25;;;;;;;;;;;21.90;52.70;;;;;;1539847;75;731;-68
2023/02/08 04:26:27;;;;;;;;;;;21.90;52.80;;;;;;1551547;76;765;-70
2023/02/08 04:28:29;;;;;;;;;;;21.90;52.70;;;;;;1551078;76;771;-70
2023/02/08 04:30:31;;;;;;;;;;;21.90;53.00;;;;;;1548067;76;1951;-69
2023/02/08 04:32:33;;;;;;;;;;;22.00;52.80;;;;;;1556491;75;685;-68
2023/02/08 04:34:35;;;;;;;;;;;22.00;52.60;;;;;;1550534;75;706;-69
2023/02/08 04:36:36;;;;;;;;;;;22.00;52.60;;;;;;1546802;76;718;-69
2023/02/08 04:38:38;;;;;;;;;;;22.00;52.60;;;;;;1549385;75;715;-68
2023/02/08 04:40:40;;;;;;;;;;;21.90;52.80;;;;;;1539996;76;1135;-68
2023/02/08 04:42:42;;;;;;;;;;;22.00;52.60;;;;;;1545271;75;773;-68
2023/02/08 04:44:44;;;;;;;;;;;22.10;52.70;;;;;;1543146;76;772;-69
2023/02/08 04:46:46;;;;;;;;;;;22.10;52.60;;;;;;1557142;76;623;-69
2023/02/08 04:48:48;;;;;;;;;;;22.10;52.60;;;;;;1554437;76;1929;-69
2023/02/08 04:50:49;;;;;;;;;;;22.10;52.30;;;;;;1558419;76;1132;-70
2023/02/08 04:52:51;;;;;;;;;;;22.10;52.10;;;;;;1555155;76;798;-70
2023/02/08 04:54:53;;;;;;;;;;;22.20;52.10;;;;;;1549615;76;759;-69
2023/02/08 04:56:55;;;;;;;;;;;22.20;52.30;;;;;;1543184;76;783;-69
2023/02/08 04:58:57;;;;;;;;;;;22.20;52.20;;;;;;1551153;76;1119;-70
2023/02/08 05:00:59;;;;;;;;;;;22.20;52.10;;;;;;1550521;76;742;-69
2023/02/08 05:03:01;;;;;;;;;;;22.20;52.10;;;;;;1546023;76;763;-68
2023/02/08 05:05:03;;;;;;;;;;;22.20;52.00;;;;;;1547961;75;728;-68
2023/02/08 05:07:05;;;;;;;;;;;22.30;52.20;;;;;;1546812;76;754;-68
2023/02/08 05:09:07;;;;;;;;;;;22.30;52.10;;;;;;1546498;76;1929;-69
2023/02/08 05:11:09;;;;;;;;;;;22.20;52.10;;;;;;1547303;76;719;-69
2023/02/08 05:13:11;;;;;;;;;;;22.20;51.90;;;;;;1553512;76;700;-69
2023/02/08 05:15:13;;;;;;;;;;;22.20;51.90;;;;;;1533482;76;711;-68
2023/02/08 05:17:15;;;;;;;;;;;22.30;51.90;;;;;;1541534;76;602;-67
2023/02/08 05:19:17;;;;;;;;;;;22.40;51.80;;;;;;1557013;75;1142;-67
2023/02/08 05:21:21;;;;;;;;;;;22.30;51.80;;;;;;1538755;76;813;-68
2023/02/08 05:23:22;;;;;;;;;;;22.30;51.80;;;;;;1548070;75;1586;-68
2023/02/08 05:25:24;;;;;;;;;;;22.40;51.80;;;;;;1551956;76;726;-69
2023/02/08 05:27:26;;;;;;;;;;;22.20;51.80;;;;;;1552127;76;736;-69
2023/02/08 05:29:28;;;;;;;;;;;22.20;51.70;;;;;;1557139;75;1940;-67
2023/02/08 05:31:30;;;;;;;;;;;22.20;51.80;;;;;;1537763;76;772;-68
2023/02/08 05:33:32;;;;;;;;;;;22.20;52.00;;;;;;1545450;76;698;-69
2023/02/08 05:35:34;;;;;;;;;;;22.10;52.10;;;;;;1557449;76;774;-68
2023/02/08 05:37:36;;;;;;;;;;;22.10;52.20;;;;;;1536212;75;780;-68
2023/02/08 05:39:37;;;;;;;;;;;22.10;52.20;;;;;;1545027;76;1135;-68
2023/02/08 05:41:39;;;;;;;;;;;22.10;52.10;;;;;;1547583;76;717;-66
2023/02/08 05:43:41;;;;;;;;;;;22.20;52.10;;;;;;1553526;76;752;-66
2023/02/08 05:45:43;;;;;;;;;;;22.20;52.10;;;;;;1558657;76;723;-66
2023/02/08 05:47:46;;;;;;;;;;;22.20;52.00;;;;;;1548998;76;764;-68
2023/02/08 05:49:48;;;;;;;;;;;22.20;51.90;;;;;;1551255;76;1931;-67
2023/02/08 05:51:50;;;;;;;;;;;22.20;51.80;;;;;;1551004;76;739;-68
2023/02/08 05:53:51;;;;;;;;;;;22.20;51.90;;;;;;1547889;76;713;-68
2023/02/08 05:55:53;;;;;;;;;;;22.20;51.90;;;;;;1544492;76;762;-68
2023/02/08 05:57:55;;;;;;;;;;;22.20;51.90;;;;;;1552431;76;792;-68
2023/02/08 05:59:57;;;;;;;;;;;22.10;52.10;;;;;;1546973;76;1106;-67
2023/02/08 06:01:59;;;;;;;;;;;22.10;52.30;;;;;;1544093;76;763;-67
2023/02/08 06:04:01;;;;;;;;;;;22.10;52.60;;;;;;1539666;76;522;-67
2023/02/08 06:06:03;;;;;;;;;;;22.10;52.50;;;;;;1549752;76;707;-68
2023/02/08 06:08:05;;;;;;;;;;;22.20;52.30;;;;;;1552224;76;705;-67
2023/02/08 06:10:07;;;;;;;;;;;22.30;52.30;;;;;;1545871;75;1958;-68
2023/02/08 06:12:09;;;;;;;;;;;22.30;52.10;;;;;;1547794;76;806;-68
2023/02/08 06:14:10;;;;;;;;;;;22.30;51.80;;;;;;1546375;76;690;-69
2023/02/08 06:16:13;;;;;;;;;;;22.30;51.60;;;;;;1541967;76;785;-70
2023/02/08 06:18:15;;;;;;;;;;;22.50;51.50;;;;;;1548398;76;744;-68
2023/02/08 06:20:16;;;;;;;;;;;22.40;51.40;;;;;;1545243;76;1103;-69
2023/02/08 06:22:18;;;;;;;;;;;22.50;51.50;;;;;;1546461;76;1186;-68
2023/02/08 06:24:20;;;;;;;;;;;22.40;51.40;;;;;;1541664;76;682;-68
2023/02/08 06:26:22;;;;;;;;;;;22.40;51.40;;;;;;1536538;76;746;-68
2023/02/08 06:28:24;;;;;;;;;;;22.40;51.30;;;;;;1542465;76;726;-67
2023/02/08 06:30:26;;;;;;;;;;;22.50;51.40;;;;;;1539230;76;1942;-72
2023/02/08 06:32:28;;;;;;;;;;;22.40;51.40;;;;;;1544116;76;675;-70
2023/02/08 06:34:30;;;;;;;;;;;22.30;51.50;;;;;;1539066;76;698;-68
2023/02/08 06:36:32;;;;;;;;;;;22.30;51.50;;;;;;1548314;76;724;-71
2023/02/08 06:38:34;;;;;;;;;;;22.30;51.40;;;;;;1546679;76;772;-70
2023/02/08 06:40:36;;;;;;;;;;;22.30;51.40;;;;;;1544561;76;1134;-73
2023/02/08 06:42:38;;;;;;;;;;;22.30;51.50;;;;;;1541611;76;707;-69
2023/02/08 06:44:40;;;;;;;;;;;22.20;51.30;;;;;;1533753;76;725;-68
2023/02/08 06:46:42;;;;;;;;;;;22.20;51.30;;;;;;1539546;76;742;-69
2023/02/08 06:48:44;;;;;;;;;;;22.20;51.30;;;;;;1537372;76;734;-68
2023/02/08 06:50:45;;;;;;;;;;;22.20;51.30;;;;;;1542267;75;1952;-68
2023/02/08 06:52:47;;;;;;;;;;;22.30;50.50;;;;;;1540428;75;744;-70
2023/02/08 06:54:49;;;;;;;;;;;22.40;47.20;;;;;;1545861;76;690;-67
2023/02/08 06:56:51;;;;;;;;;;;22.40;44.70;;;;;;1544852;76;687;-68
2023/02/08 06:58:53;;;;;;;;;;;22.30;42.30;;;;;;1551939;76;631;-68
2023/02/08 07:00:55;;;;;;;;;;;22.20;41.20;;;;;;1571403;73;3022;-72
2023/02/08 07:02:59;;;;;;;;;;;22.10;40.20;;;;;;1585243;74;847;-73
2023/02/08 07:05:01;;;;;;;;;;;22.00;39.20;;;;;;1578825;74;764;-73
2023/02/08 07:07:03;;;;;;;;;;;21.90;37.80;;;;;;1587512;74;762;-74
2023/02/08 07:09:05;;;;;;;;;;;21.80;36.40;;;;;;1581651;74;700;-73
2023/02/08 07:11:07;;;;;;;;;;;21.70;37.00;;;;;;1594451;74;1961;-72
2023/02/08 07:13:09;;;;;;;;;;;21.50;36.50;;;;;;1589749;74;787;-74
2023/02/08 07:15:12;;;;;;;;;;;21.50;36.00;;;;;;1575604;74;710;-74
2023/02/08 07:17:14;;;;;;;;;;;21.40;34.90;;;;;;1584679;74;740;-74
2023/02/08 07:19:16;;;;;;;;;;;21.30;34.60;;;;;;1580030;74;758;-73
2023/02/08 07:21:18;;;;;;;;;;;21.10;33.70;;;;;;1575621;74;1154;-73
2023/02/08 07:23:20;;;;;;;;;;;21.10;33.70;;;;;;1582223;74;723;-74
2023/02/08 07:25:21;;;;;;;;;;;21.00;33.90;;;;;;1569742;74;750;-74
2023/02/08 07:27:23;;;;;;;;;;;21.00;34.00;;;;;;1586912;74;711;-75
2023/02/08 07:29:25;;;;;;;;;;;20.80;33.00;;;;;;1593684;74;1154;-73
2023/02/08 07:31:27;;;;;;;;;;;20.80;32.60;;;;;;1588677;74;1937;-73
2023/02/08 07:33:29;;;;;;;;;;;20.70;33.10;;;;;;1587683;74;769;-74
2023/02/08 07:35:31;;;;;;;;;;;20.60;32.60;;;;;;1592734;74;791;-73
2023/02/08 07:37:33;;;;;;;;;;;20.60;31.90;;;;;;1581474;74;771;-74
2023/02/08 07:39:34;;;;;;;;;;;20.50;32.10;;;;;;1588447;74;1126;-73
2023/02/08 07:41:36;;;;;;;;;;;20.40;31.70;;;;;;1583739;74;822;-73
2023/02/08 07:43:38;;;;;;;;;;;20.40;31.60;;;;;;1584395;74;772;-72
2023/02/08 07:45:40;;;;;;;;;;;20.30;31.20;;;;;;1592524;74;713;-73
2023/02/08 07:47:42;;;;;;;;;;;20.20;31.30;;;;;;1590822;74;571;-74
2023/02/08 07:49:44;;;;;;;;;;;20.20;31.30;;;;;;1576060;74;1188;-73
2023/02/08 07:51:46;;;;;;;;;;;20.10;30.90;;;;;;1584744;74;1935;-74
2023/02/08 07:53:48;;;;;;;;;;;20.10;30.80;;;;;;1588933;74;745;-73
2023/02/08 07:55:50;;;;;;;;;;;20.00;30.60;;;;;;1575815;74;814;-74
2023/02/08 07:57:51;;;;;;;;;;;19.90;30.30;;;;;;1581223;74;856;-74
2023/02/08 07:59:53;;;;;;;;;;;19.90;30.20;;;;;;1587285;74;1103;-74
2023/02/08 08:01:55;;;;;;;;;;;19.80;30.30;;;;;;1575077;74;783;-71
2023/02/08 08:03:57;;;;;;;;;;;19.80;30.40;;;;;;1584074;74;781;-72
2023/02/08 08:05:59;;;;;;;;;;;19.70;30.20;;;;;;1586716;74;700;-72
2023/02/08 08:08:01;;;;;;;;;;;19.70;30.00;;;;;;1587807;74;673;-70
2023/02/08 08:10:03;;;;;;;;;;;19.60;29.40;;;;;;1582401;74;1952;-66
2023/02/08 08:12:05;;;;;;;;;;;19.50;31.10;;;;;;1593006;74;821;-66
2023/02/08 08:14:07;;;;;;;;;;;19.40;35.30;;;;;;1580106;73;1489;-65
2023/02/08 08:16:09;;;;;;;;;;;19.50;38.40;;;;;;1585760;73;767;-66
2023/02/08 08:18:10;;;;;;;;;;;19.50;39.40;;;;;;1589308;74;725;-66
2023/02/08 08:20:12;;;;;;;;;;;19.50;39.80;;;;;;1581316;74;1147;-65
2023/02/08 08:22:14;;;;;;;;;;;19.60;41.00;;;;;;1587981;74;845;-65
2023/02/08 08:24:16;;;;;;;;;;;19.60;41.40;;;;;;1582769;74;740;-66
2023/02/08 08:26:19;;;;;;;;;;;19.70;41.30;;;;;;1583971;74;792;-65
2023/02/08 08:28:21;;;;;;;;;;;19.80;41.30;;;;;;1588549;74;803;-66
2023/02/08 08:30:23;;;;;;;;;;;19.80;41.40;;;;;;1591632;74;1941;-66
2023/02/08 08:32:25;;;;;;;;;;;19.90;41.50;;;;;;1582788;74;775;-65
2023/02/08 08:34:29;;;;;;;;;;;20.00;41.50;;;;;;1587398;74;830;-65
2023/02/08 08:36:31;;;;;;;;;;;20.10;41.70;;;;;;1590498;74;776;-66
2023/02/08 08:38:33;;;;;;;;;;;20.20;41.80;;;;;;1590381;74;794;-67
2023/02/08 08:40:35;;;;;;;;;;;20.20;41.70;;;;;;1589426;74;1132;-66
2023/02/08 08:42:38;;;;;;;;;;;20.30;41.80;;;;;;1589131;74;722;-66
2023/02/08 08:44:40;;;;;;;;;;;20.40;41.90;;;;;;1588516;74;736;-66
2023/02/08 08:46:42;;;;;;;;;;;20.50;42.00;;;;;;1579056;74;828;-66
2023/02/08 08:48:44;;;;;;;;;;;20.50;42.00;;;;;;1586964;74;817;-66
2023/02/08 08:50:46;;;;;;;;;;;20.60;41.90;;;;;;1579040;74;1919;-66
2023/02/08 08:52:48;;;;;;;;;;;20.70;41.90;;;;;;1592061;74;753;-65
2023/02/08 08:54:50;;;;;;;;;;;20.80;41.80;;;;;;1580011;74;877;-67
2023/02/08 08:56:52;;;;;;;;;;;20.90;41.80;;;;;;1588875;74;671;-66
2023/02/08 08:58:54;;;;;;;;;;;21.00;41.80;;;;;;1585816;74;728;-66
2023/02/08 09:00:57;;;;;;;;;;;21.00;41.80;;;;;;1581942;74;1143;-66
2023/02/08 09:02:59;;;;;;;;;;;21.10;41.80;;;;;;1587326;74;625;-64
2023/02/08 09:05:03;;;;;;;;;;;21.10;41.70;;;;;;1583319;74;891;-66
2023/02/08 09:07:04;;;;;;;;;;;21.20;41.70;;;;;;1586566;74;766;-66
2023/02/08 09:09:06;;;;;;;;;;;21.20;41.70;;;;;;1588637;74;796;-67
2023/02/08 09:11:09;;;;;;;;;;;21.20;41.60;;;;;;1589684;74;1970;-66
2023/02/08 09:13:18;;;;;;;;;;;21.40;41.70;;;;;;1583679;74;784;-66
2023/02/08 09:15:14;;;;;;;;;;;21.40;41.70;;;;;;1586234;74;1627;-66
2023/02/08 09:17:16;;;;;;;;;;;21.40;41.70;;;;;;1589659;74;782;-66
2023/02/08 09:19:18;;;;;;;;;;;21.40;41.60;;;;;;1590059;74;788;-65
2023/02/08 09:21:21;;;;;;;;;;;21.40;41.60;;;;;;1592733;74;1028;-66
2023/02/08 09:23:23;;;;;;;;;;;21.50;41.70;;;;;;1582714;74;770;-66
2023/02/08 09:25:26;;;;;;;;;;;21.50;41.70;;;;;;1593734;74;770;-66
2023/02/08 09:27:28;;;;;;;;;;;21.60;41.60;;;;;;1578568;74;835;-66
2023/02/08 09:29:31;;;;;;;;;;;21.70;41.50;;;;;;1580498;74;1125;-67
2023/02/08 09:31:36;;;;;;;;;;;21.70;41.50;;;;;;1574148;74;2103;-66
2023/02/08 09:33:37;;;;;;;;;;;21.80;41.50;;;;;;1585536;74;1673;-66
2023/02/08 09:35:39;;;;;;;;;;;21.70;41.40;;;;;;1572608;74;715;-66
2023/02/08 09:37:41;;;;;;;;;;;21.80;41.40;;;;;;1585290;74;865;-67
2023/02/08 09:39:43;;;;;;;;;;;21.80;41.50;;;;;;1583945;74;1140;-67
2023/02/08 09:41:47;;;;;;;;;;;21.80;41.40;;;;;;1591145;74;778;-67
2023/02/08 09:43:59;;;;;;;;;;;21.80;41.40;;;;;;1585781;74;751;-66
2023/02/08 09:46:02;;;;;;;;;;;21.80;41.40;;;;;;1587713;74;2066;-68
2023/02/08 09:48:18;;;;;;;;;;;21.90;41.50;;;;;;1582041;74;1941;-69
2023/02/08 09:50:34;;;;;;;;;;;21.90;41.50;;;;;;1579408;74;1189;-69
2023/02/08 09:52:39;;;;;;;;;;;21.90;41.50;;;;;;1575396;74;1936;-68
2023/02/08 09:54:46;;;;;;;;;;;21.90;41.40;;;;;;1586534;74;590;-69
2023/02/08 09:56:48;;;;;;;;;;;21.90;41.40;;;;;;1578080;74;1226;-68
2023/02/08 09:58:51;;;;;;;;;;;21.90;41.40;;;;;;1592159;74;778;-68
2023/02/08 10:00:53;;;;;;;;;;;22.00;41.40;;;;;;1590180;74;1117;-68
2023/02/08 10:02:55;;;;;;;;;;;22.00;41.30;;;;;;1579180;74;800;-68
2023/02/08 10:05:01;;;;;;;;;;;22.00;41.20;;;;;;1589713;73;947;-69
2023/02/08 10:07:03;;;;;;;;;;;22.00;41.20;;;;;;1577286;74;1837;-68
2023/02/08 10:09:05;;;;;;;;;;;22.00;41.20;;;;;;1579750;74;818;-66
2023/02/08 10:11:24;;;;;;;;;;;22.00;41.10;;;;;;1588399;74;1935;-67
2023/02/08 10:13:37;;;;;;;;;;;22.00;41.10;;;;;;1590271;74;1981;-68
2023/02/08 10:15:41;;;;;;;;;;;22.00;41.00;;;;;;1594738;73;791;-66
2023/02/08 10:17:57;;;;;;;;;;;22.00;41.00;;;;;;1592463;74;728;-67
2023/02/08 10:20:06;;;;;;;;;;;22.00;41.00;;;;;;1589945;74;1158;-67
2023/02/08 10:22:10;;;;;;;;;;;22.00;40.90;;;;;;1586064;74;727;-67
2023/02/08 10:24:16;;;;;;;;;;;22.00;41.00;;;;;;1586767;74;900;-66
2023/02/08 10:26:31;;;;;;;;;;;22.00;41.00;;;;;;1561609;74;1710;-67
2023/02/08 10:28:41;;;;;;;;;;;22.00;41.00;;;;;;1593293;73;2166;-67
2023/02/08 10:30:44;;;;;;;;;;;22.00;41.00;;;;;;1589679;73;1131;-68
2023/02/08 10:33:00;;;;;;;;;;;22.00;41.00;;;;;;1589503;73;1933;-67
2023/02/08 10:35:06;;;;;;;;;;;22.00;41.00;;;;;;1589042;74;845;-68
2023/02/08 10:37:16;;;;;;;;;;;22.00;41.10;;;;;;1583283;73;1408;-67
2023/02/08 10:39:19;;;;;;;;;;;21.90;41.00;;;;;;1588709;74;819;-67
2023/02/08 10:41:28;;;;;;;;;;;21.90;41.00;;;;;;1600417;73;887;-67
2023/02/08 10:43:35;;;;;;;;;;;21.90;40.90;;;;;;1585110;74;1249;-67
2023/02/08 10:45:39;;;;;;;;;;;21.90;40.80;;;;;;1575107;74;726;-67
2023/02/08 10:47:44;;;;;;;;;;;21.80;40.50;;;;;;1584162;74;1870;-67
2023/02/08 10:49:56;;;;;;;;;;;21.90;40.20;;;;;;1571666;74;1193;-67
2023/02/08 10:51:58;;;;;;;;;;;21.90;40.40;;;;;;1581087;74;1934;-67
2023/02/08 10:54:00;;;;;;;;;;;21.90;40.40;;;;;;1581443;74;733;-67
2023/02/08 10:56:02;;;;;;;;;;;21.90;40.60;;;;;;1574536;74;736;-66
2023/02/08 10:58:04;;;;;;;;;;;21.90;40.70;;;;;;1569644;74;765;-67
2023/02/08 11:00:17;;;;;;;;;;;21.80;40.60;;;;;;1579866;74;1127;-67
2023/02/08 11:02:21;;;;;;;;;;;21.80;40.70;;;;;;1579789;74;1807;-66
2023/02/08 11:04:23;;;;;;;;;;;21.80;40.60;;;;;;1582368;74;932;-65
2023/02/08 11:06:25;;;;;;;;;;;21.80;40.60;;;;;;1586855;74;717;-66
2023/02/08 11:08:27;;;;;;;;;;;21.80;40.50;;;;;;1578426;74;752;-66
2023/02/08 11:10:29;;;;;;;;;;;21.80;40.50;;;;;;1576816;74;1232;-68
2023/02/08 11:12:31;;;;;;;;;;;21.80;40.50;;;;;;1582999;74;1927;-64
2023/02/08 11:14:35;;;;;;;;;;;21.80;40.90;;;;;;1576553;74;739;-65
2023/02/08 11:16:37;;;;;;;;;;;21.90;40.60;;;;;;1589969;74;1872;-68
2023/02/08 11:18:49;;;;;;;;;;;21.90;40.30;;;;;;1582067;74;746;-65
2023/02/08 11:21:09;;;;;;;;;;;21.80;40.20;;;;;;1573943;74;1926;-66
2023/02/08 11:23:18;;;;;;;;;;;21.80;40.10;;;;;;1583680;74;742;-65
2023/02/08 11:25:31;;;;;;;;;;;21.70;40.20;;;;;;1585542;74;1784;-66
2023/02/08 11:27:38;;;;;;;;;;;21.80;40.20;;;;;;1572939;74;779;-65
2023/02/08 11:29:40;;;;;;;;;;;21.70;40.20;;;;;;1570955;74;1152;-67
2023/02/08 11:32:01;;;;;;;;;;;21.70;40.20;;;;;;1580925;74;1940;-65
2023/02/08 11:34:08;;;;;;;;;;;21.70;40.20;;;;;;1581608;74;777;-66
2023/02/08 11:36:11;;;;;;;;;;;21.70;40.30;;;;;;1571856;74;774;-66
2023/02/08 11:38:15;;;;;;;;;;;21.60;40.30;;;;;;1577325;74;716;-66
2023/02/08 11:40:18;;;;;;;;;;;21.60;40.30;;;;;;1574265;74;1883;-65
2023/02/08 11:42:36;;;;;;;;;;;21.60;40.40;;;;;;1580637;74;868;-67
2023/02/08 11:44:39;;;;;;;;;;;21.60;40.40;;;;;;1573992;74;770;-66
2023/02/08 11:46:43;;;;;;;;;;;21.60;40.50;;;;;;1570887;74;1954;-66
2023/02/08 11:48:46;;;;;;;;;;;21.60;40.50;;;;;;1575188;74;1695;-67
2023/02/08 11:50:50;;;;;;;;;;;21.60;40.50;;;;;;1579287;74;1110;-67
2023/02/08 11:52:53;;;;;;;;;;;21.60;40.50;;;;;;1577425;74;1954;-66
2023/02/08 11:54:55;;;;;;;;;;;21.60;40.60;;;;;;1583051;74;1782;-67
2023/02/08 11:57:04;;;;;;;;;;;21.60;40.70;;;;;;1583396;74;738;-67
2023/02/08 11:59:16;;;;;;;;;;;21.60;40.60;;;;;;1584452;74;850;-66
2023/02/08 12:01:19;;;;;;;;;;;21.60;40.70;;;;;;1594300;74;1175;-66
2023/02/08 12:03:22;;;;;;;;;;;21.50;40.70;;;;;;1592217;74;798;-66
2023/02/08 12:05:26;;;;;;;;;;;21.60;40.80;;;;;;1592645;74;1657;-67
2023/02/08 12:07:35;;;;;;;;;;;21.50;40.90;;;;;;1589027;74;1759;-66
2023/02/08 12:09:56;;;;;;;;;;;21.50;40.90;;;;;;1592126;74;1174;-68
2023/02/08 12:12:02;;;;;;;;;;;21.60;41.00;;;;;;1596455;74;1919;-67
2023/02/08 12:14:18;;;;;;;;;;;21.50;41.00;;;;;;1576691;74;1799;-67
2023/02/08 12:16:24;;;;;;;;;;;21.50;41.10;;;;;;1569232;74;1899;-66
2023/02/08 12:18:44;;;;;;;;;;;21.50;41.10;;;;;;1574668;74;1939;-67
2023/02/08 12:20:46;;;;;;;;;;;21.50;41.10;;;;;;1577346;74;1170;-68
2023/02/08 12:23:06;;;;;;;;;;;21.50;41.30;;;;;;1579553;74;792;-66